createdAt,value
2022-08-23T00:02:23.635Z,98688.22
2022-08-23T00:05:07.348Z,98689.16
2022-08-23T00:07:38.219Z,98687.09
2022-08-23T00:10:05.562Z,98695.97
2022-08-23T00:12:32.147Z,98693.13
2022-08-23T00:14:58.613Z,98698.84
2022-08-23T00:17:33.248Z,98698.28
2022-08-23T00:20:00.605Z,98712.16
2022-08-23T00:22:27.174Z,98703.47
2022-08-23T00:24:53.575Z,98701.00
2022-08-23T00:27:20.142Z,98704.78
2022-08-23T00:29:46.843Z,98705.16
2022-08-23T00:32:13.275Z,98702.44
2022-08-23T00:34:39.709Z,98712.34
2022-08-23T00:37:06.345Z,98707.78
2022-08-23T00:39:32.824Z,98705.31
2022-08-23T00:41:59.670Z,98701.25
2022-08-23T00:44:26.430Z,98700.31
2022-08-23T00:46:52.904Z,98710.44
2022-08-23T00:49:20.332Z,98702.63
2022-08-23T00:51:52.714Z,98707.78
2022-08-23T00:54:19.819Z,98709.47
2022-08-23T00:56:46.560Z,98703.59
2022-08-23T00:59:13.193Z,98701.22
2022-08-23T01:01:39.711Z,98698.75
2022-08-23T01:04:06.505Z,98702.28
2022-08-23T01:06:33.203Z,98700.13
2022-08-23T01:08:59.879Z,98700.81
2022-08-23T01:11:26.545Z,98691.59
2022-08-23T01:13:53.044Z,98698.44
2022-08-23T01:16:19.484Z,98695.63
2022-08-23T01:18:48.372Z,98695.00
2022-08-23T01:21:15.204Z,98698.66
2022-08-23T01:23:41.741Z,98693.38
2022-08-23T01:26:08.469Z,98685.38
2022-08-23T01:28:34.893Z,98695.63
2022-08-23T01:31:02.758Z,98696.81
2022-08-23T01:33:33.340Z,98693.41
2022-08-23T01:35:59.762Z,98693.22
2022-08-23T01:38:26.592Z,98699.31
2022-08-23T01:40:56.873Z,98695.06
2022-08-23T01:43:23.266Z,98704.31
2022-08-23T01:45:49.730Z,98696.34
2022-08-23T01:48:16.358Z,98698.94
2022-08-23T01:50:43.071Z,98696.97
2022-08-23T01:53:09.521Z,98710.50
2022-08-23T01:58:26.575Z,98698.00
2022-08-23T02:00:53.230Z,98707.97
2022-08-23T02:03:19.614Z,98710.75
2022-08-23T02:05:48.660Z,98696.59
2022-08-23T02:08:15.560Z,98696.69
2022-08-23T02:10:41.935Z,98707.47
2022-08-23T02:13:08.534Z,98703.00
2022-08-23T02:15:35.175Z,98708.97
2022-08-23T02:18:01.993Z,98694.38
2022-08-23T02:20:28.652Z,98704.59
2022-08-23T02:22:55.243Z,98705.09
2022-08-23T02:25:21.689Z,98708.38
2022-08-23T02:27:48.515Z,98713.50
2022-08-23T02:30:15.024Z,98710.84
2022-08-23T02:32:42.298Z,98712.97
2022-08-23T02:35:09.486Z,98709.75
2022-08-23T02:37:35.937Z,98718.75
2022-08-23T02:40:02.648Z,98708.88
2022-08-23T02:45:19.112Z,98724.97
2022-08-23T02:47:45.734Z,98713.97
2022-08-23T02:50:12.224Z,98710.66
2022-08-23T02:52:38.804Z,98720.25
2022-08-23T02:55:05.372Z,98726.13
2022-08-23T02:57:31.854Z,98729.19
2022-08-23T02:59:58.250Z,98733.84
2022-08-23T03:02:25.252Z,98744.44
2022-08-23T03:04:51.973Z,98743.44
2022-08-23T03:07:18.789Z,98749.03
2022-08-23T03:09:45.426Z,98742.41
2022-08-23T03:12:11.954Z,98744.47
2022-08-23T03:14:38.692Z,98743.06
2022-08-23T03:17:05.591Z,98746.81
2022-08-23T03:19:32.035Z,98743.44
2022-08-23T03:21:58.455Z,98738.00
2022-08-23T03:24:25.204Z,98741.97
2022-08-23T03:26:51.742Z,98746.94
2022-08-23T03:29:18.945Z,98753.19
2022-08-23T03:31:46.136Z,98743.38
2022-08-23T03:34:12.543Z,98748.50
2022-08-23T03:36:38.913Z,98754.47
2022-08-23T03:39:05.386Z,98746.69
2022-08-23T03:41:31.767Z,98746.50
2022-08-23T03:43:59.226Z,98736.56
2022-08-23T03:46:26.004Z,98749.69
2022-08-23T03:48:52.456Z,98742.34
2022-08-23T03:51:19.270Z,98741.97
2022-08-23T03:53:46.096Z,98744.16
2022-08-23T03:56:12.528Z,98752.38
2022-08-23T03:58:38.898Z,98748.75
2022-08-23T04:01:05.655Z,98753.56
2022-08-23T04:03:32.159Z,98759.00
2022-08-23T04:05:58.532Z,98748.75
2022-08-23T04:08:31.823Z,98750.84
2022-08-23T04:11:00.328Z,98766.09
2022-08-23T04:13:27.107Z,98762.25
2022-08-23T04:15:56.039Z,98766.97
2022-08-23T04:18:22.466Z,98765.38
2022-08-23T04:20:49.089Z,98766.78
2022-08-23T04:23:15.539Z,98764.00
2022-08-23T04:25:42.178Z,98770.22
2022-08-23T04:28:09.250Z,98769.63
2022-08-23T04:30:38.083Z,98762.16
2022-08-23T04:33:04.468Z,98758.91
2022-08-23T04:35:37.251Z,98761.22
2022-08-23T04:38:04.522Z,98774.06
2022-08-23T04:40:51.192Z,98767.69
2022-08-23T04:43:17.686Z,98760.59
2022-08-23T04:45:44.060Z,98773.47
2022-08-23T04:48:12.103Z,98775.34
2022-08-23T04:50:38.840Z,98779.38
2022-08-23T04:53:05.392Z,98783.06
2022-08-23T04:55:31.992Z,98781.31
2022-08-23T04:58:02.822Z,98775.69
2022-08-23T05:00:29.719Z,98780.75
2022-08-23T05:02:56.367Z,98793.50
2022-08-23T05:05:22.797Z,98790.19
2022-08-23T05:07:49.609Z,98790.06
2022-08-23T05:10:16.480Z,98794.53
2022-08-23T05:12:42.991Z,98803.28
2022-08-23T05:15:09.557Z,98785.84
2022-08-23T05:17:36.117Z,98792.03
2022-08-23T05:20:02.500Z,98797.38
2022-08-23T05:22:28.904Z,98806.56
2022-08-23T05:24:55.763Z,98802.72
2022-08-23T05:27:22.545Z,98806.00
2022-08-23T05:29:50.149Z,98808.66
2022-08-23T05:32:16.807Z,98806.69
2022-08-23T05:34:43.272Z,98807.22
2022-08-23T05:37:09.745Z,98814.97
2022-08-23T05:39:37.523Z,98813.09
2022-08-23T05:42:07.211Z,98817.63
2022-08-23T05:44:34.526Z,98824.84
2022-08-23T05:47:03.385Z,98834.13
2022-08-23T05:49:29.761Z,98838.00
2022-08-23T05:51:58.186Z,98825.91
2022-08-23T05:54:24.633Z,98840.56
2022-08-23T05:56:51.450Z,98841.50
2022-08-23T05:59:17.874Z,98842.03
2022-08-23T06:01:46.025Z,98841.34
2022-08-23T09:56:34.726Z,98996.03
2022-08-23T09:59:03.177Z,99001.78
2022-08-23T10:01:29.807Z,99001.78
2022-08-23T10:03:56.494Z,98990.00
2022-08-23T10:06:22.981Z,98997.72
2022-08-23T10:08:57.809Z,98994.28
2022-08-23T10:11:24.179Z,99005.69
2022-08-23T10:13:50.554Z,99003.22
2022-08-23T10:16:17.365Z,99002.28
2022-08-23T10:18:43.902Z,99007.69
2022-08-23T10:21:10.325Z,99017.75
2022-08-23T10:23:36.860Z,99011.44
2022-08-23T10:26:03.282Z,99010.50
2022-08-23T10:28:29.862Z,98992.47
2022-08-23T10:31:02.321Z,99011.72
2022-08-23T10:33:29.082Z,99001.06
2022-08-23T10:35:55.613Z,99004.22
2022-08-23T10:38:22.164Z,98993.38
2022-08-23T10:40:48.672Z,99027.63
2022-08-23T10:43:15.157Z,99017.16
2022-08-23T10:45:41.847Z,99001.91
2022-08-23T10:48:10.071Z,98995.66
2022-08-23T10:50:37.496Z,99000.56
2022-08-23T10:53:08.487Z,99004.47
2022-08-23T10:55:35.054Z,99003.84
2022-08-23T10:58:01.887Z,98993.00
2022-08-23T11:00:28.542Z,98997.19
2022-08-23T11:02:55.091Z,99004.91
2022-08-23T11:13:30.207Z,98995.53
2022-08-23T11:15:56.663Z,98986.50
2022-08-23T11:18:23.383Z,98998.75
2022-08-23T11:20:50.035Z,98993.44
2022-08-23T11:23:17.093Z,98997.78
2022-08-23T11:25:43.801Z,98996.31
2022-08-23T11:28:10.910Z,99007.91
2022-08-23T11:30:37.491Z,98995.19
2022-08-23T11:33:03.980Z,99028.19
2022-08-23T11:35:34.868Z,99007.94
2022-08-23T11:38:05.030Z,98997.59
2022-08-23T11:40:31.995Z,99006.00
2022-08-23T11:42:58.767Z,99018.25
2022-08-23T11:45:25.290Z,99015.66
2022-08-23T11:47:51.947Z,99003.31
2022-08-23T11:50:18.504Z,99003.97
2022-08-23T11:52:47.523Z,98999.31
2022-08-23T11:55:14.106Z,99020.06
2022-08-23T11:57:40.798Z,99014.69
2022-08-23T12:00:07.285Z,99003.75
2022-08-23T12:02:34.445Z,99003.31
2022-08-23T12:05:01.095Z,99013.50
2022-08-23T12:07:28.572Z,99002.47
2022-08-23T12:09:55.089Z,99013.00
2022-08-23T12:12:21.653Z,99024.47
2022-08-23T12:14:48.143Z,99025.31
2022-08-23T12:17:14.587Z,99018.72
2022-08-23T12:19:42.894Z,99022.22
2022-08-23T12:22:11.709Z,99026.84
2022-08-23T12:24:38.183Z,99012.06
2022-08-23T12:46:57.958Z,99025.09
2022-08-23T12:49:24.361Z,99032.00
2022-08-23T12:51:50.832Z,99020.31
2022-08-23T12:54:18.137Z,99023.50
2022-08-23T12:56:44.539Z,99025.63
2022-08-23T12:59:12.041Z,99019.25
2022-08-23T13:01:38.701Z,99027.97
2022-08-23T13:04:05.228Z,99020.38
2022-08-23T13:06:31.629Z,99019.72
2022-08-23T13:08:58.528Z,99024.44
2022-08-23T13:11:25.025Z,99036.25
2022-08-23T13:13:51.482Z,99020.78
2022-08-23T13:16:27.093Z,99029.94
2022-08-23T13:18:53.941Z,99014.63
2022-08-23T13:21:20.566Z,99024.88
2022-08-23T13:23:47.913Z,99029.13
2022-08-23T13:26:14.541Z,99025.41
2022-08-23T13:28:40.924Z,99024.13
2022-08-23T13:31:07.428Z,99023.38
2022-08-23T13:33:33.906Z,99023.81
2022-08-23T13:36:00.324Z,99023.56
2022-08-23T13:38:28.676Z,99033.94
2022-08-23T13:40:55.208Z,99015.50
2022-08-23T13:43:21.664Z,99033.72
2022-08-23T13:45:48.339Z,99031.41
2022-08-23T13:48:14.983Z,99020.78
2022-08-23T13:50:41.433Z,99035.34
2022-08-23T13:53:15.789Z,99025.94
2022-08-23T13:55:42.559Z,99033.50
2022-08-23T13:58:09.275Z,99029.31
2022-08-23T14:00:35.772Z,99040.16
2022-08-23T14:03:02.419Z,99026.47
2022-08-23T14:05:29.292Z,99016.38
2022-08-23T14:07:59.741Z,99023.69
2022-08-23T14:10:26.139Z,99023.53
2022-08-23T14:12:53.035Z,99034.41
2022-08-23T14:15:19.570Z,99029.47
2022-08-23T14:17:46.152Z,99030.81
2022-08-23T14:23:02.361Z,99030.75
2022-08-23T14:25:38.032Z,99032.34
2022-08-23T14:28:04.990Z,99033.63
2022-08-23T14:30:31.487Z,99048.84
2022-08-23T14:32:58.339Z,99053.44
2022-08-23T14:35:24.833Z,99040.97
2022-08-23T14:38:06.558Z,99047.16
2022-08-23T14:40:33.489Z,99051.66
2022-08-23T14:42:59.934Z,99052.78
2022-08-23T14:45:26.651Z,99059.84
2022-08-23T14:47:53.335Z,99056.47
2022-08-23T14:50:19.747Z,99060.41
2022-08-23T14:52:46.717Z,99065.47
2022-08-23T14:55:13.383Z,99063.78
2022-08-23T14:57:39.844Z,99065.97
2022-08-23T15:00:06.289Z,99067.16
2022-08-23T15:02:32.867Z,99067.69
2022-08-23T15:04:59.338Z,99073.63
2022-08-23T15:07:25.837Z,99073.28
2022-08-23T15:09:52.400Z,99066.88
2022-08-23T15:15:05.394Z,99066.16
2022-08-23T15:17:32.012Z,99072.63
2022-08-23T15:19:58.433Z,99069.28
2022-08-23T15:22:25.277Z,99061.50
2022-08-23T15:24:52.560Z,99061.38
2022-08-23T15:27:19.078Z,99064.44
2022-08-23T15:29:45.531Z,99069.53
2022-08-23T15:32:12.778Z,99070.09
2022-08-23T15:34:40.170Z,99069.78
2022-08-23T15:37:13.657Z,99074.59
2022-08-23T15:39:40.103Z,99073.56
2022-08-23T15:42:06.530Z,99069.81
2022-08-23T15:44:33.246Z,99077.81
2022-08-23T15:46:59.787Z,99074.16
2022-08-23T15:49:27.029Z,99072.88
2022-08-23T15:51:56.112Z,99072.72
2022-08-23T15:54:22.533Z,99065.00
2022-08-23T15:56:49.489Z,99062.66
2022-08-23T15:59:16.106Z,99058.50
2022-08-23T16:01:42.756Z,99067.09
2022-08-23T16:04:09.229Z,99064.19
2022-08-23T16:06:36.649Z,99066.84
2022-08-23T16:09:03.708Z,99068.28
2022-08-23T16:11:30.168Z,99061.94
2022-08-23T16:13:56.814Z,99064.75
2022-08-23T16:16:23.676Z,99058.56
2022-08-23T16:18:51.631Z,99048.41
2022-08-23T16:21:18.538Z,99066.03
2022-08-23T16:23:45.167Z,99062.34
2022-08-23T16:26:11.899Z,99060.53
2022-08-23T16:28:40.948Z,99050.38
2022-08-23T16:31:07.509Z,99049.84
2022-08-23T16:33:34.236Z,99051.25
2022-08-23T16:36:01.012Z,99045.00
2022-08-23T16:38:27.507Z,99052.72
2022-08-23T16:40:54.178Z,99059.38
2022-08-23T16:43:20.951Z,99054.81
2022-08-23T16:45:47.425Z,99049.84
2022-08-23T16:48:14.959Z,99047.56
2022-08-23T16:50:41.547Z,99052.38
2022-08-23T16:53:08.303Z,99064.50
2022-08-23T16:55:35.188Z,99070.59
2022-08-23T16:58:01.759Z,99068.50
2022-08-23T17:00:29.769Z,99067.91
2022-08-23T17:02:56.215Z,99074.13
2022-08-23T17:05:22.889Z,99075.81
2022-08-23T17:07:49.782Z,99076.56
2022-08-23T17:10:16.225Z,99073.38
2022-08-23T17:12:42.881Z,99080.13
2022-08-23T17:15:13.399Z,99081.50
2022-08-23T17:17:45.416Z,99084.78
2022-08-23T17:20:11.905Z,99087.38
2022-08-23T17:22:38.281Z,99076.59
2022-08-23T17:25:04.753Z,99082.25
2022-08-23T17:27:31.211Z,99083.59
2022-08-23T17:29:57.747Z,99074.31
2022-08-23T17:32:25.384Z,99093.66
2022-08-23T17:34:52.093Z,99089.53
2022-08-23T17:37:18.546Z,99091.06
2022-08-23T17:39:45.148Z,99094.88
2022-08-23T17:42:11.634Z,99099.34
2022-08-23T17:44:38.302Z,99101.97
2022-08-23T17:47:07.622Z,99101.34
2022-08-23T17:49:34.252Z,99098.31
2022-08-23T17:52:02.047Z,99103.44
2022-08-23T17:54:28.726Z,99106.91
2022-08-23T17:56:55.092Z,99117.13
2022-08-23T17:59:21.714Z,99109.31
2022-08-23T18:01:48.436Z,99116.91
2022-08-23T18:04:15.902Z,99120.75
2022-08-23T18:06:42.404Z,99118.53
2022-08-23T18:09:09.101Z,99126.22
2022-08-23T18:11:35.562Z,99125.06
2022-08-23T18:14:02.088Z,99132.19
2022-08-23T18:16:33.002Z,99128.63
2022-08-23T18:19:02.132Z,99128.75
2022-08-23T18:21:29.703Z,99138.75
2022-08-23T18:23:58.008Z,99126.94
2022-08-23T18:26:24.679Z,99129.47
2022-08-23T18:28:52.400Z,99131.50
2022-08-23T18:31:19.305Z,99135.16
2022-08-23T18:33:47.079Z,99137.41
2022-08-23T18:36:13.924Z,99139.25
2022-08-23T18:38:40.670Z,99136.41
2022-08-23T18:41:07.430Z,99134.19
2022-08-23T18:43:37.682Z,99147.19
2022-08-23T18:46:04.618Z,99154.13
2022-08-23T18:48:31.907Z,99147.22
2022-08-23T18:50:59.004Z,99160.81
2022-08-23T18:53:26.403Z,99159.25
2022-08-23T18:55:52.912Z,99163.25
2022-08-23T18:58:21.017Z,99163.53
2022-08-23T19:00:48.055Z,99157.53
2022-08-23T19:03:17.975Z,99170.63
2022-08-23T19:05:44.503Z,99170.09
2022-08-23T19:08:11.315Z,99173.22
2022-08-23T19:10:38.027Z,99185.03
2022-08-23T19:13:05.733Z,99173.81
2022-08-23T19:15:32.992Z,99193.72
2022-08-23T19:18:01.546Z,99190.09
2022-08-23T19:20:28.166Z,99186.59
2022-08-23T19:22:54.813Z,99190.28
2022-08-23T19:25:21.710Z,99187.88
2022-08-23T19:27:48.583Z,99191.50
2022-08-23T19:30:17.363Z,99188.97
2022-08-23T19:32:44.290Z,99192.09
2022-08-23T19:35:12.195Z,99196.22
2022-08-23T19:37:40.981Z,99202.41
2022-08-23T19:40:07.867Z,99191.50
2022-08-23T19:42:34.962Z,99187.34
2022-08-23T19:45:01.915Z,99194.66
2022-08-23T19:47:29.160Z,99191.25
2022-08-23T19:50:04.393Z,99208.94
2022-08-23T19:52:31.866Z,99199.84
2022-08-23T19:55:05.193Z,99205.94
2022-08-23T19:57:32.886Z,99198.28
2022-08-23T19:59:59.726Z,99200.91
2022-08-23T20:02:26.598Z,99201.59
2022-08-23T20:04:54.135Z,99208.84
2022-08-23T20:07:22.214Z,99215.97
2022-08-23T20:09:49.105Z,99198.56
2022-08-23T20:12:18.267Z,99212.59
2022-08-23T20:14:45.348Z,99207.28
2022-08-23T20:17:12.562Z,99211.34
2022-08-23T20:19:39.781Z,99204.53
2022-08-23T20:22:06.619Z,99200.81
2022-08-23T20:24:50.933Z,99208.00
2022-08-23T20:27:24.187Z,99201.22
2022-08-23T20:29:57.777Z,99215.00
2022-08-23T20:32:24.834Z,99215.75
2022-08-23T20:34:51.429Z,99212.47
2022-08-23T20:37:18.170Z,99214.06
2022-08-23T20:39:44.752Z,99207.13
2022-08-23T20:42:11.340Z,99210.56
2022-08-23T20:44:37.801Z,99209.38
2022-08-23T20:47:04.424Z,99200.44
2022-08-23T20:49:30.985Z,99191.13
2022-08-23T20:51:57.404Z,99190.06
2022-08-23T20:54:24.017Z,99202.31
2022-08-23T20:56:50.601Z,99198.66
2022-08-23T20:59:17.274Z,99204.97
2022-08-23T21:01:44.239Z,99206.16
2022-08-23T21:04:11.544Z,99196.41
2022-08-23T21:06:37.994Z,99208.84
2022-08-23T21:09:04.900Z,99205.56
2022-08-23T21:11:31.387Z,99209.84
2022-08-23T21:13:58.271Z,99210.41
2022-08-23T21:16:24.955Z,99210.03
2022-08-23T21:18:51.680Z,99230.00
2022-08-23T21:21:21.761Z,99231.97
2022-08-23T21:23:48.854Z,99224.59
2022-08-23T21:26:15.586Z,99216.59
2022-08-23T21:28:41.978Z,99220.09
2022-08-23T21:31:08.987Z,99227.06
2022-08-23T21:33:39.839Z,99216.63
2022-08-23T21:36:07.015Z,99212.00
2022-08-23T21:38:33.572Z,99207.84
2022-08-23T21:41:00.132Z,99220.56
2022-08-23T21:43:26.561Z,99229.78
2022-08-23T21:45:53.301Z,99206.34
2022-08-23T21:48:20.033Z,99208.13
2022-08-23T21:50:46.615Z,99207.22
2022-08-23T21:53:13.878Z,99208.25
2022-08-23T21:55:40.418Z,99205.19
2022-08-23T21:58:06.892Z,99207.88
2022-08-23T22:00:35.090Z,99209.72
2022-08-23T22:03:01.776Z,99217.25
2022-08-23T22:05:28.373Z,99221.03
2022-08-23T22:07:54.937Z,99219.47
2022-08-23T22:10:23.678Z,99226.47
2022-08-23T22:12:50.227Z,99233.50
2022-08-23T22:15:17.093Z,99220.72
2022-08-23T22:17:44.001Z,99223.78
2022-08-23T22:20:10.408Z,99223.94
2022-08-23T22:22:37.051Z,99219.47
2022-08-23T22:27:30.018Z,99216.47
2022-08-23T22:30:00.883Z,99220.31
2022-08-23T22:32:27.346Z,99216.03
2022-08-23T22:34:53.836Z,99211.34
2022-08-23T22:37:21.113Z,99213.16
2022-08-23T22:39:47.814Z,99218.19
2022-08-23T22:42:14.282Z,99202.16
2022-08-23T22:44:40.994Z,99205.28
2022-08-23T22:47:07.419Z,99206.97
2022-08-23T22:49:33.873Z,99203.25
2022-08-23T22:52:00.700Z,99197.13
2022-08-23T22:54:27.102Z,99199.44
2022-08-23T22:56:53.508Z,99200.50
2022-08-23T22:59:20.170Z,99209.44
2022-08-23T23:01:47.609Z,99194.63
2022-08-23T23:04:14.449Z,99204.44
2022-08-23T23:06:41.262Z,99198.00
2022-08-23T23:09:09.382Z,99198.47
2022-08-23T23:11:36.091Z,99210.44
2022-08-23T23:14:02.703Z,99207.38
2022-08-23T23:16:29.212Z,99202.63
2022-08-23T23:18:55.671Z,99200.94
2022-08-23T23:21:22.140Z,99202.88
2022-08-23T23:23:50.123Z,99199.03
2022-08-23T23:26:18.900Z,99204.88
2022-08-23T23:28:45.636Z,99206.69
2022-08-23T23:31:12.286Z,99193.13
2022-08-23T23:33:38.761Z,99188.03
2022-08-23T23:36:05.293Z,99195.44
2022-08-23T23:38:31.786Z,99192.94
2022-08-23T23:40:58.401Z,99185.81
2022-08-23T23:43:24.867Z,99188.25
2022-08-23T23:45:51.308Z,99186.34
2022-08-23T23:48:17.834Z,99178.16
2022-08-23T23:50:46.697Z,99174.00
2022-08-23T23:53:13.494Z,99179.31
2022-08-23T23:55:39.908Z,99175.06
2022-08-23T23:58:06.478Z,99167.94
